sensor_id;sensor_type;location;lat;lon;timestamp;P1;durP1;ratioP1;P2;durP2;ratioP2
76566;SDS011;65428;53.194;6.132;2024-02-23T00:01:07;8.40;;;0.60;;
76566;SDS011;65428;53.194;6.132;2024-02-23T00:03:33;7.47;;;0.37;;
76566;SDS011;65428;53.194;6.132;2024-02-23T00:06:01;8.48;;;0.30;;
76566;SDS011;65428;53.194;6.132;2024-02-23T00:08:27;6.43;;;0.50;;
76566;SDS011;65428;53.194;6.132;2024-02-23T00:10:55;6.25;;;0.40;;
76566;SDS011;65428;53.194;6.132;2024-02-23T00:13:21;6.87;;;0.47;;
76566;SDS011;65428;53.194;6.132;2024-02-23T00:15:47;9.82;;;0.55;;
76566;SDS011;65428;53.194;6.132;2024-02-23T00:18:12;11.57;;;0.43;;
76566;SDS011;65428;53.194;6.132;2024-02-23T00:20:39;10.45;;;0.50;;
76566;SDS011;65428;53.194;6.132;2024-02-23T00:23:05;7.60;;;0.60;;
76566;SDS011;65428;53.194;6.132;2024-02-23T00:25:31;6.17;;;0.50;;
76566;SDS011;65428;53.194;6.132;2024-02-23T00:27:57;9.20;;;0.50;;
76566;SDS011;65428;53.194;6.132;2024-02-23T00:30:22;7.78;;;0.40;;
76566;SDS011;65428;53.194;6.132;2024-02-23T00:32:48;8.18;;;0.65;;
76566;SDS011;65428;53.194;6.132;2024-02-23T00:35:14;7.17;;;0.57;;
76566;SDS011;65428;53.194;6.132;2024-02-23T00:37:39;6.70;;;0.53;;
76566;SDS011;65428;53.194;6.132;2024-02-23T00:40:05;6.80;;;0.50;;
76566;SDS011;65428;53.194;6.132;2024-02-23T00:42:31;5.37;;;0.40;;
76566;SDS011;65428;53.194;6.132;2024-02-23T00:44:57;3.87;;;0.60;;
76566;SDS011;65428;53.194;6.132;2024-02-23T00:47:23;6.72;;;0.52;;
76566;SDS011;65428;53.194;6.132;2024-02-23T00:49:48;4.70;;;0.50;;
76566;SDS011;65428;53.194;6.132;2024-02-23T00:52:14;5.03;;;0.40;;
76566;SDS011;65428;53.194;6.132;2024-02-23T00:54:41;5.95;;;0.50;;
76566;SDS011;65428;53.194;6.132;2024-02-23T00:57:07;5.17;;;1.03;;
76566;SDS011;65428;53.194;6.132;2024-02-23T00:59:33;7.30;;;0.77;;
76566;SDS011;65428;53.194;6.132;2024-02-23T01:01:59;7.67;;;0.70;;
76566;SDS011;65428;53.194;6.132;2024-02-23T01:04:24;8.30;;;0.90;;
76566;SDS011;65428;53.194;6.132;2024-02-23T01:06:53;10.85;;;1.08;;
76566;SDS011;65428;53.194;6.132;2024-02-23T01:09:18;7.93;;;0.73;;
76566;SDS011;65428;53.194;6.132;2024-02-23T01:11:48;13.32;;;1.67;;
76566;SDS011;65428;53.194;6.132;2024-02-23T01:14:14;13.65;;;1.40;;
76566;SDS011;65428;53.194;6.132;2024-02-23T01:16:40;11.90;;;1.40;;
76566;SDS011;65428;53.194;6.132;2024-02-23T01:19:06;16.30;;;1.33;;
76566;SDS011;65428;53.194;6.132;2024-02-23T01:21:32;12.68;;;1.58;;
76566;SDS011;65428;53.194;6.132;2024-02-23T01:23:58;9.43;;;0.90;;
76566;SDS011;65428;53.194;6.132;2024-02-23T01:26:25;10.98;;;1.33;;
76566;SDS011;65428;53.194;6.132;2024-02-23T01:28:52;10.35;;;1.25;;
76566;SDS011;65428;53.194;6.132;2024-02-23T01:31:18;10.85;;;1.58;;
76566;SDS011;65428;53.194;6.132;2024-02-23T01:33:44;13.33;;;1.40;;
76566;SDS011;65428;53.194;6.132;2024-02-23T01:36:09;9.68;;;1.00;;
76566;SDS011;65428;53.194;6.132;2024-02-23T01:38:35;11.80;;;1.45;;
76566;SDS011;65428;53.194;6.132;2024-02-23T01:41:01;12.97;;;1.40;;
76566;SDS011;65428;53.194;6.132;2024-02-23T01:43:27;10.93;;;0.73;;
76566;SDS011;65428;53.194;6.132;2024-02-23T01:45:52;11.13;;;1.10;;
76566;SDS011;65428;53.194;6.132;2024-02-23T01:48:22;10.23;;;1.00;;
76566;SDS011;65428;53.194;6.132;2024-02-23T01:50:50;11.13;;;1.50;;
76566;SDS011;65428;53.194;6.132;2024-02-23T01:53:16;12.53;;;1.37;;
76566;SDS011;65428;53.194;6.132;2024-02-23T01:55:45;15.23;;;1.70;;
76566;SDS011;65428;53.194;6.132;2024-02-23T01:58:12;13.70;;;1.40;;
76566;SDS011;65428;53.194;6.132;2024-02-23T02:00:38;15.53;;;1.27;;
76566;SDS011;65428;53.194;6.132;2024-02-23T02:03:04;14.07;;;1.30;;
76566;SDS011;65428;53.194;6.132;2024-02-23T02:05:30;11.93;;;1.63;;
76566;SDS011;65428;53.194;6.132;2024-02-23T02:07:55;11.93;;;1.13;;
76566;SDS011;65428;53.194;6.132;2024-02-23T02:10:25;13.13;;;2.15;;
76566;SDS011;65428;53.194;6.132;2024-02-23T02:12:51;9.48;;;1.15;;
76566;SDS011;65428;53.194;6.132;2024-02-23T02:15:17;10.03;;;0.97;;
76566;SDS011;65428;53.194;6.132;2024-02-23T02:17:43;8.48;;;1.20;;
76566;SDS011;65428;53.194;6.132;2024-02-23T02:20:11;9.60;;;1.57;;
76566;SDS011;65428;53.194;6.132;2024-02-23T02:22:38;9.52;;;1.30;;
76566;SDS011;65428;53.194;6.132;2024-02-23T02:25:05;10.45;;;1.33;;
76566;SDS011;65428;53.194;6.132;2024-02-23T02:27:31;11.45;;;1.17;;
76566;SDS011;65428;53.194;6.132;2024-02-23T02:29:57;10.27;;;1.30;;
76566;SDS011;65428;53.194;6.132;2024-02-23T02:32:23;9.43;;;1.43;;
76566;SDS011;65428;53.194;6.132;2024-02-23T02:34:49;9.93;;;1.43;;
76566;SDS011;65428;53.194;6.132;2024-02-23T02:37:14;9.48;;;1.20;;
76566;SDS011;65428;53.194;6.132;2024-02-23T02:39:40;9.45;;;1.48;;
76566;SDS011;65428;53.194;6.132;2024-02-23T02:42:06;9.45;;;1.60;;
76566;SDS011;65428;53.194;6.132;2024-02-23T02:44:32;9.40;;;1.45;;
76566;SDS011;65428;53.194;6.132;2024-02-23T02:46:58;9.77;;;1.00;;
76566;SDS011;65428;53.194;6.132;2024-02-23T02:49:23;9.50;;;1.10;;
76566;SDS011;65428;53.194;6.132;2024-02-23T02:51:49;11.77;;;1.53;;
76566;SDS011;65428;53.194;6.132;2024-02-23T02:54:15;7.63;;;1.02;;
76566;SDS011;65428;53.194;6.132;2024-02-23T02:56:42;11.10;;;1.40;;
76566;SDS011;65428;53.194;6.132;2024-02-23T02:59:12;8.88;;;0.90;;
76566;SDS011;65428;53.194;6.132;2024-02-23T03:01:39;8.10;;;1.00;;
76566;SDS011;65428;53.194;6.132;2024-02-23T03:04:05;8.43;;;0.90;;
76566;SDS011;65428;53.194;6.132;2024-02-23T03:06:30;8.77;;;1.05;;
76566;SDS011;65428;53.194;6.132;2024-02-23T03:08:56;8.57;;;0.82;;
76566;SDS011;65428;53.194;6.132;2024-02-23T03:11:22;6.50;;;0.77;;
76566;SDS011;65428;53.194;6.132;2024-02-23T03:13:47;9.37;;;1.30;;
76566;SDS011;65428;53.194;6.132;2024-02-23T03:16:16;9.63;;;1.20;;
76566;SDS011;65428;53.194;6.132;2024-02-23T03:18:42;9.38;;;1.13;;
76566;SDS011;65428;53.194;6.132;2024-02-23T03:21:08;8.93;;;1.20;;
76566;SDS011;65428;53.194;6.132;2024-02-23T03:23:34;8.90;;;0.90;;
76566;SDS011;65428;53.194;6.132;2024-02-23T03:26:00;7.97;;;0.80;;
76566;SDS011;65428;53.194;6.132;2024-02-23T03:28:27;8.55;;;1.05;;
76566;SDS011;65428;53.194;6.132;2024-02-23T03:30:53;9.45;;;0.73;;
76566;SDS011;65428;53.194;6.132;2024-02-23T03:33:19;8.93;;;0.80;;
76566;SDS011;65428;53.194;6.132;2024-02-23T03:35:44;9.00;;;0.98;;
76566;SDS011;65428;53.194;6.132;2024-02-23T03:38:10;9.27;;;0.95;;
76566;SDS011;65428;53.194;6.132;2024-02-23T03:40:36;8.45;;;0.90;;
76566;SDS011;65428;53.194;6.132;2024-02-23T03:43:02;11.23;;;1.33;;
76566;SDS011;65428;53.194;6.132;2024-02-23T03:45:28;10.23;;;0.90;;
76566;SDS011;65428;53.194;6.132;2024-02-23T03:47:54;8.87;;;0.70;;
76566;SDS011;65428;53.194;6.132;2024-02-23T03:50:19;9.43;;;0.80;;
76566;SDS011;65428;53.194;6.132;2024-02-23T03:52:45;8.73;;;0.60;;
76566;SDS011;65428;53.194;6.132;2024-02-23T03:55:10;9.52;;;1.15;;
76566;SDS011;65428;53.194;6.132;2024-02-23T03:57:36;8.73;;;0.93;;
76566;SDS011;65428;53.194;6.132;2024-02-23T04:00:02;8.83;;;0.70;;
76566;SDS011;65428;53.194;6.132;2024-02-23T04:02:29;8.30;;;0.95;;
76566;SDS011;65428;53.194;6.132;2024-02-23T04:04:54;9.35;;;0.98;;
76566;SDS011;65428;53.194;6.132;2024-02-23T04:07:20;7.50;;;0.60;;
76566;SDS011;65428;53.194;6.132;2024-02-23T04:09:46;7.60;;;0.87;;
76566;SDS011;65428;53.194;6.132;2024-02-23T04:12:18;7.85;;;0.65;;
76566;SDS011;65428;53.194;6.132;2024-02-23T04:14:44;10.32;;;1.08;;
76566;SDS011;65428;53.194;6.132;2024-02-23T04:17:10;9.85;;;0.90;;
76566;SDS011;65428;53.194;6.132;2024-02-23T04:19:37;8.25;;;0.63;;
76566;SDS011;65428;53.194;6.132;2024-02-23T04:22:03;6.73;;;0.70;;
76566;SDS011;65428;53.194;6.132;2024-02-23T04:24:31;9.80;;;0.60;;
76566;SDS011;65428;53.194;6.132;2024-02-23T04:26:56;8.83;;;0.67;;
76566;SDS011;65428;53.194;6.132;2024-02-23T04:29:22;7.07;;;0.50;;
76566;SDS011;65428;53.194;6.132;2024-02-23T04:31:47;7.93;;;0.70;;
76566;SDS011;65428;53.194;6.132;2024-02-23T04:34:14;8.00;;;0.70;;
76566;SDS011;65428;53.194;6.132;2024-02-23T04:36:41;7.03;;;0.68;;
76566;SDS011;65428;53.194;6.132;2024-02-23T04:39:07;7.57;;;0.60;;
76566;SDS011;65428;53.194;6.132;2024-02-23T04:41:33;8.93;;;0.80;;
76566;SDS011;65428;53.194;6.132;2024-02-23T04:43:58;8.27;;;0.93;;
76566;SDS011;65428;53.194;6.132;2024-02-23T04:46:26;7.20;;;1.23;;
76566;SDS011;65428;53.194;6.132;2024-02-23T04:48:51;9.90;;;1.02;;
76566;SDS011;65428;53.194;6.132;2024-02-23T04:51:17;6.95;;;0.82;;
76566;SDS011;65428;53.194;6.132;2024-02-23T04:53:43;8.27;;;0.80;;
76566;SDS011;65428;53.194;6.132;2024-02-23T04:56:09;9.20;;;0.65;;
76566;SDS011;65428;53.194;6.132;2024-02-23T04:58:35;8.93;;;0.70;;
76566;SDS011;65428;53.194;6.132;2024-02-23T05:01:02;7.50;;;0.55;;
76566;SDS011;65428;53.194;6.132;2024-02-23T05:03:28;11.93;;;0.85;;
76566;SDS011;65428;53.194;6.132;2024-02-23T05:05:54;10.93;;;0.85;;
76566;SDS011;65428;53.194;6.132;2024-02-23T05:08:20;10.02;;;0.80;;
76566;SDS011;65428;53.194;6.132;2024-02-23T05:10:46;10.20;;;0.93;;
76566;SDS011;65428;53.194;6.132;2024-02-23T05:13:12;8.25;;;0.70;;
76566;SDS011;65428;53.194;6.132;2024-02-23T05:15:38;11.55;;;1.00;;
76566;SDS011;65428;53.194;6.132;2024-02-23T05:18:04;10.60;;;0.80;;
76566;SDS011;65428;53.194;6.132;2024-02-23T05:20:30;9.02;;;0.65;;
76566;SDS011;65428;53.194;6.132;2024-02-23T05:22:56;7.95;;;1.00;;
76566;SDS011;65428;53.194;6.132;2024-02-23T05:25:21;9.07;;;0.73;;
76566;SDS011;65428;53.194;6.132;2024-02-23T05:27:47;9.20;;;0.63;;
76566;SDS011;65428;53.194;6.132;2024-02-23T05:30:13;11.25;;;0.80;;
76566;SDS011;65428;53.194;6.132;2024-02-23T05:32:39;9.55;;;0.90;;
76566;SDS011;65428;53.194;6.132;2024-02-23T05:35:05;10.18;;;0.80;;
76566;SDS011;65428;53.194;6.132;2024-02-23T05:37:31;8.43;;;0.98;;
76566;SDS011;65428;53.194;6.132;2024-02-23T05:39:56;8.85;;;0.60;;
76566;SDS011;65428;53.194;6.132;2024-02-23T05:42:25;8.27;;;0.70;;
76566;SDS011;65428;53.194;6.132;2024-02-23T05:44:51;11.23;;;0.87;;
76566;SDS011;65428;53.194;6.132;2024-02-23T05:47:16;13.00;;;1.00;;
76566;SDS011;65428;53.194;6.132;2024-02-23T05:49:42;9.98;;;1.02;;
76566;SDS011;65428;53.194;6.132;2024-02-23T05:52:08;10.50;;;1.25;;
76566;SDS011;65428;53.194;6.132;2024-02-23T05:54:34;10.73;;;1.40;;
76566;SDS011;65428;53.194;6.132;2024-02-23T05:57:00;10.15;;;1.10;;
76566;SDS011;65428;53.194;6.132;2024-02-23T05:59:26;8.95;;;0.70;;
76566;SDS011;65428;53.194;6.132;2024-02-23T06:01:52;9.98;;;0.90;;
76566;SDS011;65428;53.194;6.132;2024-02-23T06:04:21;9.73;;;0.80;;
76566;SDS011;65428;53.194;6.132;2024-02-23T06:06:50;9.50;;;1.00;;
76566;SDS011;65428;53.194;6.132;2024-02-23T06:09:16;8.70;;;0.88;;
76566;SDS011;65428;53.194;6.132;2024-02-23T06:11:42;9.85;;;0.88;;
76566;SDS011;65428;53.194;6.132;2024-02-23T06:14:08;8.57;;;1.08;;
76566;SDS011;65428;53.194;6.132;2024-02-23T06:16:34;11.23;;;1.83;;
76566;SDS011;65428;53.194;6.132;2024-02-23T06:18:59;10.05;;;1.55;;
76566;SDS011;65428;53.194;6.132;2024-02-23T06:21:25;10.07;;;2.47;;
76566;SDS011;65428;53.194;6.132;2024-02-23T06:23:51;9.32;;;2.25;;
76566;SDS011;65428;53.194;6.132;2024-02-23T06:26:18;10.27;;;2.67;;
76566;SDS011;65428;53.194;6.132;2024-02-23T06:28:43;12.23;;;2.88;;
76566;SDS011;65428;53.194;6.132;2024-02-23T06:31:09;9.27;;;2.97;;
76566;SDS011;65428;53.194;6.132;2024-02-23T06:33:35;7.88;;;2.85;;
76566;SDS011;65428;53.194;6.132;2024-02-23T06:36:01;11.10;;;3.20;;
76566;SDS011;65428;53.194;6.132;2024-02-23T06:38:28;10.73;;;3.03;;
76566;SDS011;65428;53.194;6.132;2024-02-23T06:40:54;10.25;;;2.67;;
76566;SDS011;65428;53.194;6.132;2024-02-23T06:43:21;7.75;;;2.45;;
76566;SDS011;65428;53.194;6.132;2024-02-23T06:45:46;9.60;;;2.75;;
76566;SDS011;65428;53.194;6.132;2024-02-23T06:48:12;10.67;;;2.77;;
76566;SDS011;65428;53.194;6.132;2024-02-23T06:50:38;11.98;;;3.10;;
76566;SDS011;65428;53.194;6.132;2024-02-23T06:53:03;9.98;;;2.97;;
76566;SDS011;65428;53.194;6.132;2024-02-23T06:55:31;11.65;;;3.28;;
76566;SDS011;65428;53.194;6.132;2024-02-23T06:57:59;11.47;;;3.27;;
76566;SDS011;65428;53.194;6.132;2024-02-23T07:00:25;11.87;;;3.10;;
76566;SDS011;65428;53.194;6.132;2024-02-23T07:02:50;11.25;;;3.30;;
76566;SDS011;65428;53.194;6.132;2024-02-23T07:05:16;12.18;;;4.22;;
76566;SDS011;65428;53.194;6.132;2024-02-23T07:07:43;13.07;;;4.37;;
76566;SDS011;65428;53.194;6.132;2024-02-23T07:10:09;12.17;;;4.57;;
76566;SDS011;65428;53.194;6.132;2024-02-23T07:12:35;11.63;;;4.55;;
76566;SDS011;65428;53.194;6.132;2024-02-23T07:15:01;12.73;;;4.90;;
76566;SDS011;65428;53.194;6.132;2024-02-23T07:17:27;12.52;;;4.93;;
76566;SDS011;65428;53.194;6.132;2024-02-23T07:19:53;11.10;;;4.90;;
76566;SDS011;65428;53.194;6.132;2024-02-23T07:22:19;13.88;;;5.45;;
76566;SDS011;65428;53.194;6.132;2024-02-23T07:24:47;13.25;;;5.43;;
76566;SDS011;65428;53.194;6.132;2024-02-23T07:27:14;12.00;;;5.57;;
76566;SDS011;65428;53.194;6.132;2024-02-23T07:29:40;10.47;;;5.07;;
76566;SDS011;65428;53.194;6.132;2024-02-23T07:32:06;13.48;;;5.30;;
76566;SDS011;65428;53.194;6.132;2024-02-23T07:34:31;11.02;;;5.10;;
76566;SDS011;65428;53.194;6.132;2024-02-23T07:36:57;15.52;;;5.70;;
76566;SDS011;65428;53.194;6.132;2024-02-23T07:39:23;8.97;;;4.37;;
76566;SDS011;65428;53.194;6.132;2024-02-23T07:41:48;12.67;;;4.73;;
76566;SDS011;65428;53.194;6.132;2024-02-23T07:44:14;10.15;;;4.90;;
76566;SDS011;65428;53.194;6.132;2024-02-23T07:46:40;12.10;;;5.07;;
76566;SDS011;65428;53.194;6.132;2024-02-23T07:49:07;12.65;;;4.63;;
76566;SDS011;65428;53.194;6.132;2024-02-23T07:51:32;8.02;;;4.68;;
76566;SDS011;65428;53.194;6.132;2024-02-23T07:53:58;9.50;;;4.32;;
76566;SDS011;65428;53.194;6.132;2024-02-23T07:56:24;10.93;;;4.55;;
76566;SDS011;65428;53.194;6.132;2024-02-23T07:58:49;10.83;;;4.63;;
76566;SDS011;65428;53.194;6.132;2024-02-23T08:01:15;9.40;;;4.47;;
76566;SDS011;65428;53.194;6.132;2024-02-23T08:03:41;9.80;;;4.68;;
76566;SDS011;65428;53.194;6.132;2024-02-23T08:06:06;8.20;;;4.78;;
76566;SDS011;65428;53.194;6.132;2024-02-23T08:08:32;10.40;;;5.53;;
76566;SDS011;65428;53.194;6.132;2024-02-23T08:11:03;9.82;;;4.93;;
76566;SDS011;65428;53.194;6.132;2024-02-23T08:13:29;10.57;;;5.40;;
76566;SDS011;65428;53.194;6.132;2024-02-23T08:15:54;8.48;;;5.38;;
76566;SDS011;65428;53.194;6.132;2024-02-23T08:18:20;9.45;;;5.05;;
76566;SDS011;65428;53.194;6.132;2024-02-23T08:20:48;8.85;;;5.05;;
76566;SDS011;65428;53.194;6.132;2024-02-23T08:23:13;9.43;;;5.30;;
76566;SDS011;65428;53.194;6.132;2024-02-23T08:25:39;10.38;;;4.70;;
76566;SDS011;65428;53.194;6.132;2024-02-23T08:28:05;8.48;;;5.30;;
76566;SDS011;65428;53.194;6.132;2024-02-23T08:30:31;7.68;;;4.65;;
76566;SDS011;65428;53.194;6.132;2024-02-23T08:32:57;8.27;;;4.53;;
76566;SDS011;65428;53.194;6.132;2024-02-23T08:35:23;8.38;;;4.55;;
76566;SDS011;65428;53.194;6.132;2024-02-23T08:37:49;9.02;;;3.90;;
76566;SDS011;65428;53.194;6.132;2024-02-23T08:40:14;7.88;;;4.20;;
76566;SDS011;65428;53.194;6.132;2024-02-23T08:42:40;7.27;;;3.30;;
76566;SDS011;65428;53.194;6.132;2024-02-23T08:45:06;8.07;;;3.67;;
76566;SDS011;65428;53.194;6.132;2024-02-23T08:47:32;6.70;;;3.42;;
76566;SDS011;65428;53.194;6.132;2024-02-23T08:49:59;6.80;;;2.78;;
76566;SDS011;65428;53.194;6.132;2024-02-23T08:52:25;5.82;;;2.47;;
76566;SDS011;65428;53.194;6.132;2024-02-23T08:54:51;6.07;;;2.10;;
76566;SDS011;65428;53.194;6.132;2024-02-23T08:57:17;5.68;;;2.17;;
76566;SDS011;65428;53.194;6.132;2024-02-23T08:59:45;5.15;;;1.85;;
76566;SDS011;65428;53.194;6.132;2024-02-23T09:02:11;5.28;;;1.80;;
76566;SDS011;65428;53.194;6.132;2024-02-23T09:04:37;5.47;;;1.45;;
76566;SDS011;65428;53.194;6.132;2024-02-23T09:07:02;4.17;;;1.43;;
76566;SDS011;65428;53.194;6.132;2024-02-23T09:09:28;4.00;;;1.63;;
76566;SDS011;65428;53.194;6.132;2024-02-23T09:11:55;5.75;;;1.60;;
76566;SDS011;65428;53.194;6.132;2024-02-23T09:14:20;5.82;;;1.63;;
76566;SDS011;65428;53.194;6.132;2024-02-23T09:16:49;5.90;;;1.10;;
76566;SDS011;65428;53.194;6.132;2024-02-23T09:19:19;5.57;;;1.00;;
76566;SDS011;65428;53.194;6.132;2024-02-23T09:21:45;5.53;;;0.90;;
76566;SDS011;65428;53.194;6.132;2024-02-23T09:24:13;4.60;;;0.95;;
76566;SDS011;65428;53.194;6.132;2024-02-23T09:26:38;4.90;;;0.90;;
76566;SDS011;65428;53.194;6.132;2024-02-23T09:29:04;4.78;;;0.90;;
76566;SDS011;65428;53.194;6.132;2024-02-23T09:31:30;6.57;;;1.10;;
76566;SDS011;65428;53.194;6.132;2024-02-23T09:33:57;6.05;;;0.90;;
76566;SDS011;65428;53.194;6.132;2024-02-23T09:36:23;6.03;;;1.40;;
76566;SDS011;65428;53.194;6.132;2024-02-23T09:38:49;5.95;;;1.10;;
76566;SDS011;65428;53.194;6.132;2024-02-23T09:41:19;4.22;;;0.73;;
76566;SDS011;65428;53.194;6.132;2024-02-23T09:43:46;6.32;;;1.17;;
76566;SDS011;65428;53.194;6.132;2024-02-23T09:46:16;4.88;;;0.88;;
76566;SDS011;65428;53.194;6.132;2024-02-23T09:48:45;5.28;;;1.05;;
76566;SDS011;65428;53.194;6.132;2024-02-23T09:51:13;5.33;;;1.00;;
76566;SDS011;65428;53.194;6.132;2024-02-23T09:53:39;6.38;;;1.23;;
76566;SDS011;65428;53.194;6.132;2024-02-23T09:56:07;4.40;;;0.80;;
76566;SDS011;65428;53.194;6.132;2024-02-23T09:58:34;4.47;;;0.90;;
76566;SDS011;65428;53.194;6.132;2024-02-23T10:01:01;5.50;;;1.02;;
76566;SDS011;65428;53.194;6.132;2024-02-23T10:03:28;4.28;;;0.90;;
76566;SDS011;65428;53.194;6.132;2024-02-23T10:05:58;6.75;;;1.30;;
76566;SDS011;65428;53.194;6.132;2024-02-23T10:08:27;7.53;;;1.17;;
76566;SDS011;65428;53.194;6.132;2024-02-23T10:10:54;7.53;;;1.33;;
76566;SDS011;65428;53.194;6.132;2024-02-23T10:13:21;6.77;;;1.30;;
76566;SDS011;65428;53.194;6.132;2024-02-23T10:15:49;8.23;;;1.40;;
76566;SDS011;65428;53.194;6.132;2024-02-23T10:18:16;5.60;;;1.80;;
76566;SDS011;65428;53.194;6.132;2024-02-23T10:20:41;5.95;;;1.30;;
76566;SDS011;65428;53.194;6.132;2024-02-23T10:23:08;6.95;;;1.50;;
76566;SDS011;65428;53.194;6.132;2024-02-23T10:25:34;8.48;;;1.83;;
76566;SDS011;65428;53.194;6.132;2024-02-23T10:28:01;5.55;;;1.70;;
76566;SDS011;65428;53.194;6.132;2024-02-23T10:30:27;6.67;;;1.60;;
76566;SDS011;65428;53.194;6.132;2024-02-23T10:32:55;6.47;;;1.77;;
76566;SDS011;65428;53.194;6.132;2024-02-23T10:35:21;7.47;;;1.50;;
76566;SDS011;65428;53.194;6.132;2024-02-23T10:37:48;6.68;;;1.40;;
76566;SDS011;65428;53.194;6.132;2024-02-23T10:40:17;6.47;;;1.10;;
76566;SDS011;65428;53.194;6.132;2024-02-23T10:42:44;5.03;;;0.80;;
76566;SDS011;65428;53.194;6.132;2024-02-23T10:45:21;3.90;;;1.05;;
76566;SDS011;65428;53.194;6.132;2024-02-23T10:47:53;7.32;;;1.20;;
76566;SDS011;65428;53.194;6.132;2024-02-23T10:50:20;7.33;;;0.90;;
76566;SDS011;65428;53.194;6.132;2024-02-23T10:52:49;6.78;;;1.10;;
76566;SDS011;65428;53.194;6.132;2024-02-23T10:55:15;5.32;;;0.70;;
76566;SDS011;65428;53.194;6.132;2024-02-23T10:57:42;7.80;;;0.88;;
76566;SDS011;65428;53.194;6.132;2024-02-23T11:00:08;5.13;;;1.00;;
76566;SDS011;65428;53.194;6.132;2024-02-23T11:02:43;4.75;;;0.73;;
76566;SDS011;65428;53.194;6.132;2024-02-23T11:05:11;7.35;;;1.20;;
76566;SDS011;65428;53.194;6.132;2024-02-23T11:07:39;5.35;;;0.90;;
76566;SDS011;65428;53.194;6.132;2024-02-23T11:10:05;6.28;;;0.90;;
76566;SDS011;65428;53.194;6.132;2024-02-23T11:12:31;6.40;;;1.20;;
76566;SDS011;65428;53.194;6.132;2024-02-23T11:15:00;5.20;;;0.75;;
76566;SDS011;65428;53.194;6.132;2024-02-23T11:17:26;6.97;;;1.40;;
76566;SDS011;65428;53.194;6.132;2024-02-23T11:19:54;5.00;;;0.70;;
76566;SDS011;65428;53.194;6.132;2024-02-23T11:22:25;5.68;;;0.95;;
76566;SDS011;65428;53.194;6.132;2024-02-23T11:24:51;6.90;;;0.93;;
76566;SDS011;65428;53.194;6.132;2024-02-23T11:27:17;6.25;;;0.85;;
76566;SDS011;65428;53.194;6.132;2024-02-23T11:29:45;3.35;;;0.93;;
76566;SDS011;65428;53.194;6.132;2024-02-23T11:32:15;5.68;;;1.30;;
76566;SDS011;65428;53.194;6.132;2024-02-23T11:34:53;4.43;;;0.95;;
76566;SDS011;65428;53.194;6.132;2024-02-23T11:37:22;5.78;;;0.90;;
76566;SDS011;65428;53.194;6.132;2024-02-23T11:39:48;8.10;;;1.43;;
76566;SDS011;65428;53.194;6.132;2024-02-23T11:42:14;5.63;;;1.50;;
76566;SDS011;65428;53.194;6.132;2024-02-23T11:44:40;3.97;;;1.00;;
76566;SDS011;65428;53.194;6.132;2024-02-23T11:47:06;4.07;;;0.77;;
76566;SDS011;65428;53.194;6.132;2024-02-23T11:49:32;6.50;;;1.23;;
76566;SDS011;65428;53.194;6.132;2024-02-23T11:52:01;6.13;;;1.85;;
76566;SDS011;65428;53.194;6.132;2024-02-23T11:54:30;4.57;;;0.70;;
76566;SDS011;65428;53.194;6.132;2024-02-23T11:56:56;5.60;;;1.20;;
76566;SDS011;65428;53.194;6.132;2024-02-23T11:59:22;5.65;;;0.80;;
76566;SDS011;65428;53.194;6.132;2024-02-23T12:01:48;5.78;;;1.17;;
76566;SDS011;65428;53.194;6.132;2024-02-23T12:04:14;5.28;;;1.02;;
76566;SDS011;65428;53.194;6.132;2024-02-23T12:06:41;4.97;;;0.97;;
76566;SDS011;65428;53.194;6.132;2024-02-23T12:09:08;5.13;;;0.90;;
76566;SDS011;65428;53.194;6.132;2024-02-23T12:11:38;6.53;;;0.80;;
76566;SDS011;65428;53.194;6.132;2024-02-23T12:14:05;4.67;;;0.80;;
76566;SDS011;65428;53.194;6.132;2024-02-23T12:16:34;4.03;;;0.60;;
76566;SDS011;65428;53.194;6.132;2024-02-23T12:19:02;4.00;;;0.60;;
76566;SDS011;65428;53.194;6.132;2024-02-23T12:21:28;5.20;;;0.70;;
76566;SDS011;65428;53.194;6.132;2024-02-23T12:23:54;3.80;;;0.67;;
76566;SDS011;65428;53.194;6.132;2024-02-23T12:26:20;4.30;;;0.60;;
76566;SDS011;65428;53.194;6.132;2024-02-23T12:28:46;3.83;;;0.60;;
76566;SDS011;65428;53.194;6.132;2024-02-23T12:31:12;3.58;;;0.82;;
76566;SDS011;65428;53.194;6.132;2024-02-23T12:33:38;2.90;;;0.57;;
76566;SDS011;65428;53.194;6.132;2024-02-23T12:36:07;3.40;;;0.63;;
76566;SDS011;65428;53.194;6.132;2024-02-23T12:38:34;4.32;;;0.50;;
76566;SDS011;65428;53.194;6.132;2024-02-23T12:41:01;3.63;;;0.50;;
76566;SDS011;65428;53.194;6.132;2024-02-23T12:43:28;4.20;;;0.50;;
76566;SDS011;65428;53.194;6.132;2024-02-23T12:45:54;3.85;;;0.70;;
76566;SDS011;65428;53.194;6.132;2024-02-23T12:48:21;4.93;;;0.88;;
76566;SDS011;65428;53.194;6.132;2024-02-23T12:50:47;4.82;;;1.10;;
76566;SDS011;65428;53.194;6.132;2024-02-23T12:53:29;4.28;;;0.70;;
76566;SDS011;65428;53.194;6.132;2024-02-23T12:56:09;6.18;;;1.48;;
76566;SDS011;65428;53.194;6.132;2024-02-23T12:58:36;4.53;;;0.80;;
76566;SDS011;65428;53.194;6.132;2024-02-23T13:01:03;3.58;;;0.80;;
76566;SDS011;65428;53.194;6.132;2024-02-23T13:03:29;4.88;;;1.20;;
76566;SDS011;65428;53.194;6.132;2024-02-23T13:05:55;4.20;;;0.93;;
76566;SDS011;65428;53.194;6.132;2024-02-23T13:08:22;5.05;;;1.30;;
76566;SDS011;65428;53.194;6.132;2024-02-23T13:10:49;4.55;;;1.63;;
76566;SDS011;65428;53.194;6.132;2024-02-23T13:13:18;5.05;;;0.90;;
76566;SDS011;65428;53.194;6.132;2024-02-23T13:15:44;4.93;;;1.48;;
76566;SDS011;65428;53.194;6.132;2024-02-23T13:18:14;5.97;;;1.00;;
76566;SDS011;65428;53.194;6.132;2024-02-23T13:20:40;4.87;;;1.20;;
76566;SDS011;65428;53.194;6.132;2024-02-23T13:23:09;5.00;;;1.40;;
76566;SDS011;65428;53.194;6.132;2024-02-23T13:25:36;6.40;;;1.38;;
76566;SDS011;65428;53.194;6.132;2024-02-23T13:28:05;7.18;;;1.88;;
76566;SDS011;65428;53.194;6.132;2024-02-23T13:30:32;6.20;;;2.45;;
76566;SDS011;65428;53.194;6.132;2024-02-23T13:32:58;6.82;;;2.00;;
76566;SDS011;65428;53.194;6.132;2024-02-23T13:35:24;8.55;;;2.65;;
76566;SDS011;65428;53.194;6.132;2024-02-23T13:37:50;7.90;;;3.50;;
76566;SDS011;65428;53.194;6.132;2024-02-23T13:40:16;8.57;;;3.25;;
76566;SDS011;65428;53.194;6.132;2024-02-23T13:42:42;9.68;;;2.90;;
76566;SDS011;65428;53.194;6.132;2024-02-23T13:45:11;8.82;;;3.65;;
76566;SDS011;65428;53.194;6.132;2024-02-23T13:47:39;10.15;;;2.00;;
76566;SDS011;65428;53.194;6.132;2024-02-23T13:50:05;3.67;;;0.50;;
76566;SDS011;65428;53.194;6.132;2024-02-23T13:52:31;5.97;;;0.40;;
76566;SDS011;65428;53.194;6.132;2024-02-23T13:54:57;3.40;;;0.40;;
76566;SDS011;65428;53.194;6.132;2024-02-23T13:57:23;1.77;;;0.17;;
76566;SDS011;65428;53.194;6.132;2024-02-23T13:59:48;4.03;;;0.20;;
76566;SDS011;65428;53.194;6.132;2024-02-23T14:02:14;2.60;;;0.20;;
76566;SDS011;65428;53.194;6.132;2024-02-23T14:04:41;5.63;;;0.73;;
76566;SDS011;65428;53.194;6.132;2024-02-23T14:07:07;4.43;;;0.30;;
76566;SDS011;65428;53.194;6.132;2024-02-23T14:09:32;4.37;;;0.40;;
76566;SDS011;65428;53.194;6.132;2024-02-23T14:11:58;6.03;;;0.50;;
76566;SDS011;65428;53.194;6.132;2024-02-23T14:14:24;3.40;;;0.30;;
76566;SDS011;65428;53.194;6.132;2024-02-23T14:16:51;3.63;;;0.40;;
76566;SDS011;65428;53.194;6.132;2024-02-23T14:19:17;4.50;;;0.30;;
76566;SDS011;65428;53.194;6.132;2024-02-23T14:21:44;6.53;;;0.55;;
76566;SDS011;65428;53.194;6.132;2024-02-23T14:24:10;6.03;;;0.52;;
76566;SDS011;65428;53.194;6.132;2024-02-23T14:26:35;6.43;;;0.40;;
76566;SDS011;65428;53.194;6.132;2024-02-23T14:29:01;5.87;;;0.50;;
76566;SDS011;65428;53.194;6.132;2024-02-23T14:31:27;5.28;;;0.50;;
76566;SDS011;65428;53.194;6.132;2024-02-23T14:33:53;6.28;;;0.60;;
76566;SDS011;65428;53.194;6.132;2024-02-23T14:36:18;5.20;;;0.70;;
76566;SDS011;65428;53.194;6.132;2024-02-23T14:38:44;4.70;;;0.63;;
76566;SDS011;65428;53.194;6.132;2024-02-23T14:41:10;6.50;;;0.88;;